createdAt,value
2019-02-06T00:00:13.852Z,15.80
2019-02-06T00:01:13.958Z,14.80
2019-02-06T00:02:14.181Z,15.80
2019-02-06T00:03:14.376Z,15.60
2019-02-06T00:04:15.563Z,14.20
2019-02-06T00:05:15.833Z,16.60
2019-02-06T00:06:14.991Z,14.90
2019-02-06T00:07:15.217Z,15.30
2019-02-06T00:08:15.550Z,14.10
2019-02-06T00:09:15.639Z,14.90
2019-02-06T00:10:15.821Z,14.80
2019-02-06T00:11:16.075Z,14.40
2019-02-06T00:12:16.286Z,14.70
2019-02-06T00:13:22.580Z,15.10
2019-02-06T00:14:16.723Z,15.00
2019-02-06T00:15:16.917Z,14.10
2019-02-06T00:16:17.229Z,14.80
2019-02-06T00:17:17.332Z,14.00
2019-02-06T00:18:17.502Z,14.90
2019-02-06T00:19:17.754Z,13.90
2019-02-06T00:20:17.923Z,14.30
2019-02-06T00:21:20.373Z,13.60
2019-02-06T00:22:18.341Z,14.20
2019-02-06T00:23:18.557Z,14.50
2019-02-06T00:24:18.797Z,14.20
2019-02-06T00:25:18.955Z,14.00
2019-02-06T00:26:19.164Z,14.70
2019-02-06T00:27:19.362Z,14.00
2019-02-06T00:28:19.563Z,13.00
2019-02-06T00:29:19.785Z,14.00
2019-02-06T00:30:19.978Z,14.50
2019-02-06T00:31:20.196Z,14.50
2019-02-06T00:32:20.445Z,13.80
2019-02-06T00:33:20.584Z,14.00
2019-02-06T00:34:20.827Z,14.30
2019-02-06T00:35:25.794Z,13.20
2019-02-06T00:36:22.242Z,13.40
2019-02-06T00:37:21.452Z,14.20
2019-02-06T00:38:21.639Z,13.00
2019-02-06T00:39:21.828Z,13.20
2019-02-06T00:40:22.306Z,13.70
2019-02-06T00:41:22.388Z,13.70
2019-02-06T00:42:22.490Z,13.60
2019-02-06T00:43:22.683Z,13.20
2019-02-06T00:44:22.889Z,13.30
2019-02-06T00:45:23.113Z,13.10
2019-02-06T00:46:23.300Z,13.70
2019-02-06T00:47:23.530Z,14.00
2019-02-06T00:48:23.715Z,13.00
2019-02-06T00:49:24.005Z,14.00
2019-02-06T00:50:24.130Z,14.30
2019-02-06T00:51:24.332Z,14.00
2019-02-06T00:52:24.561Z,14.10
2019-02-06T00:53:24.742Z,14.10
2019-02-06T00:54:24.955Z,14.70
2019-02-06T00:55:25.196Z,13.20
2019-02-06T00:56:25.381Z,13.60
2019-02-06T00:57:25.676Z,13.10
2019-02-06T00:58:25.772Z,14.10
2019-02-06T00:59:25.991Z,13.70
2019-02-06T01:00:26.245Z,14.40
2019-02-06T01:01:26.426Z,14.40
2019-02-06T01:02:26.659Z,14.00
2019-02-06T01:03:26.850Z,13.90
2019-02-06T01:04:27.059Z,14.00
2019-02-06T01:05:37.443Z,13.80
2019-02-06T01:06:28.433Z,13.00
2019-02-06T01:07:27.684Z,13.70
2019-02-06T01:08:27.866Z,13.40
2019-02-06T01:09:28.070Z,13.20
2019-02-06T01:10:28.336Z,13.30
2019-02-06T01:11:28.494Z,13.60
2019-02-06T01:12:28.704Z,12.80
2019-02-06T01:13:28.964Z,12.80
2019-02-06T01:14:29.309Z,13.20
2019-02-06T01:15:29.659Z,12.90
2019-02-06T01:16:29.547Z,12.50
2019-02-06T01:17:29.750Z,12.00
2019-02-06T01:18:29.957Z,14.70
2019-02-06T01:19:30.176Z,13.30
2019-02-06T01:20:30.454Z,14.20
2019-02-06T01:21:30.598Z,13.20
2019-02-06T01:22:30.887Z,12.40
2019-02-06T01:23:31.003Z,12.90
2019-02-06T01:24:31.211Z,13.10
2019-02-06T01:25:31.461Z,12.70
2019-02-06T01:26:31.618Z,12.40
2019-02-06T01:27:31.837Z,12.90
2019-02-06T01:28:32.011Z,12.30
2019-02-06T01:29:32.238Z,12.60
2019-02-06T01:30:32.606Z,13.50
2019-02-06T01:31:32.663Z,12.70
2019-02-06T01:32:32.910Z,12.30
2019-02-06T01:33:33.069Z,12.60
2019-02-06T01:34:33.293Z,12.40
2019-02-06T01:35:33.539Z,11.90
2019-02-06T01:36:33.714Z,12.10
2019-02-06T01:37:33.928Z,12.90
2019-02-06T01:38:34.167Z,13.60
2019-02-06T01:39:34.310Z,12.90
2019-02-06T01:40:34.589Z,11.80
2019-02-06T01:41:34.736Z,12.50
2019-02-06T01:42:35.205Z,12.00
2019-02-06T01:43:35.157Z,13.30
2019-02-06T01:44:35.354Z,11.50
2019-02-06T01:45:35.592Z,12.60
2019-02-06T01:46:35.805Z,12.20
2019-02-06T01:47:35.963Z,11.80
2019-02-06T01:48:36.168Z,12.30
2019-02-06T01:49:36.372Z,11.50
2019-02-06T01:50:36.640Z,12.60
2019-02-06T01:51:36.850Z,12.10
2019-02-06T01:52:37.012Z,13.00
2019-02-06T01:53:37.203Z,12.10
2019-02-06T01:54:37.437Z,12.10
2019-02-06T01:55:37.767Z,12.40
2019-02-06T01:56:37.805Z,11.80
2019-02-06T01:57:38.032Z,12.30
2019-02-06T01:58:38.245Z,12.50
2019-02-06T01:59:38.457Z,11.30
2019-02-06T02:00:38.746Z,11.70
2019-02-06T02:01:38.873Z,12.30
2019-02-06T02:02:39.064Z,11.90
2019-02-06T02:03:39.382Z,12.20
2019-02-06T02:04:39.502Z,11.90
2019-02-06T02:05:39.756Z,10.80
2019-02-06T02:06:39.903Z,12.00
2019-02-06T02:07:40.116Z,11.80
2019-02-06T02:08:40.349Z,12.00
2019-02-06T02:09:40.543Z,12.80
2019-02-06T02:10:40.794Z,11.90
2019-02-06T02:11:41.029Z,12.00
2019-02-06T02:12:41.134Z,12.70
2019-02-06T02:13:41.387Z,12.10
2019-02-06T02:14:41.577Z,11.60
2019-02-06T02:15:41.832Z,12.20
2019-02-06T02:16:41.978Z,12.10
2019-02-06T02:17:42.185Z,11.40
2019-02-06T02:18:42.399Z,12.00
2019-02-06T02:19:42.649Z,12.10
2019-02-06T02:20:42.854Z,11.70
2019-02-06T02:21:43.028Z,12.10
2019-02-06T02:22:43.227Z,11.80
2019-02-06T02:23:43.444Z,12.10
2019-02-06T02:24:43.612Z,12.40
2019-02-06T02:25:43.883Z,12.20
2019-02-06T02:26:44.039Z,12.70
2019-02-06T02:27:44.283Z,12.50
2019-02-06T02:28:44.629Z,12.70
2019-02-06T02:29:44.652Z,12.20
2019-02-06T02:30:44.925Z,11.90
2019-02-06T02:31:45.098Z,12.60
2019-02-06T02:32:45.292Z,13.30
2019-02-06T02:33:45.520Z,13.00
2019-02-06T02:34:45.708Z,12.30
2019-02-06T02:35:45.980Z,13.20
2019-02-06T02:36:46.242Z,13.90
2019-02-06T02:37:46.342Z,13.50
2019-02-06T02:38:46.568Z,13.60
2019-02-06T02:39:46.756Z,14.00
2019-02-06T02:40:46.989Z,12.90
2019-02-06T02:41:47.170Z,13.10
2019-02-06T02:42:47.392Z,12.80
2019-02-06T02:43:47.610Z,13.00
2019-02-06T02:44:47.914Z,12.90
2019-02-06T02:45:48.052Z,13.10
2019-02-06T02:46:48.223Z,13.90
2019-02-06T02:47:48.431Z,13.20
2019-02-06T02:48:48.653Z,13.50
2019-02-06T02:49:48.843Z,13.20
2019-02-06T02:50:49.085Z,13.20
2019-02-06T02:51:49.238Z,13.30
2019-02-06T02:52:49.526Z,12.60
2019-02-06T02:53:49.689Z,13.20
2019-02-06T02:54:49.883Z,12.70
2019-02-06T02:55:50.144Z,13.20
2019-02-06T02:56:50.296Z,13.20
2019-02-06T02:57:50.478Z,13.10
2019-02-06T02:58:50.723Z,12.80
2019-02-06T02:59:50.915Z,13.20
2019-02-06T03:00:51.191Z,12.80
2019-02-06T03:01:51.303Z,12.20
2019-02-06T03:02:51.503Z,13.50
2019-02-06T03:03:51.734Z,13.80
2019-02-06T03:04:51.935Z,12.50
2019-02-06T03:05:52.394Z,13.00
2019-02-06T03:06:52.363Z,13.60
2019-02-06T03:07:52.585Z,12.70
2019-02-06T03:08:52.814Z,12.90
2019-02-06T03:09:53.038Z,13.20
2019-02-06T03:10:53.231Z,13.10
2019-02-06T03:11:53.445Z,13.40
2019-02-06T03:12:53.636Z,13.10
2019-02-06T03:13:53.853Z,12.90
2019-02-06T03:14:54.065Z,13.00
2019-02-06T03:15:54.256Z,13.30
2019-02-06T03:16:54.549Z,13.10
2019-02-06T03:17:54.750Z,13.20
2019-02-06T03:18:54.872Z,13.50
2019-02-06T03:19:55.060Z,13.60
2019-02-06T03:20:55.280Z,12.60
2019-02-06T03:21:55.760Z,13.30
2019-02-06T03:22:55.691Z,13.40
2019-02-06T03:23:55.944Z,13.70
2019-02-06T03:24:56.117Z,13.80
2019-02-06T03:25:56.423Z,13.60
2019-02-06T03:26:56.541Z,13.00
2019-02-06T03:27:56.732Z,14.40
2019-02-06T03:28:56.945Z,14.80
2019-02-06T03:29:57.145Z,14.30
2019-02-06T03:30:57.337Z,14.60
2019-02-06T03:31:57.586Z,13.70
2019-02-06T03:32:57.800Z,14.00
2019-02-06T03:33:58.042Z,14.30
2019-02-06T03:34:58.161Z,14.60
2019-02-06T03:35:58.372Z,14.40
2019-02-06T03:36:58.603Z,15.70
2019-02-06T03:37:58.783Z,15.10
2019-02-06T03:38:59.016Z,14.50
2019-02-06T03:39:59.191Z,15.80
2019-02-06T03:40:59.403Z,14.90
2019-02-06T03:41:59.676Z,14.80
2019-02-06T03:42:59.796Z,14.80
2019-02-06T03:44:00.044Z,14.90
2019-02-06T03:45:00.289Z,16.10
2019-02-06T03:46:00.442Z,15.20
2019-02-06T03:47:00.683Z,16.00
2019-02-06T03:48:00.866Z,14.70
2019-02-06T03:49:01.062Z,16.50
2019-02-06T03:50:01.279Z,15.80
2019-02-06T03:51:01.587Z,16.20
2019-02-06T03:52:01.713Z,15.50
2019-02-06T03:53:01.875Z,16.10
2019-02-06T03:54:02.111Z,15.30
2019-02-06T03:55:02.325Z,15.40
2019-02-06T03:56:02.528Z,15.30
2019-02-06T03:57:02.764Z,14.90
2019-02-06T03:58:02.944Z,15.80
2019-02-06T03:59:03.251Z,14.80
2019-02-06T04:00:03.346Z,15.70
2019-02-06T04:01:03.553Z,15.60
2019-02-06T04:02:03.797Z,16.00
2019-02-06T04:03:03.965Z,15.60
2019-02-06T04:04:04.162Z,15.10
2019-02-06T04:05:04.368Z,15.60
2019-02-06T04:06:04.599Z,15.30
2019-02-06T04:07:04.920Z,16.80
2019-02-06T04:08:04.991Z,15.70
2019-02-06T04:09:05.200Z,17.00
2019-02-06T04:10:05.458Z,16.10
2019-02-06T04:11:05.632Z,17.20
2019-02-06T04:12:05.883Z,16.40
2019-02-06T04:13:06.045Z,16.60
2019-02-06T04:14:06.253Z,15.90
2019-02-06T04:15:06.518Z,16.50
2019-02-06T04:16:06.653Z,15.80
2019-02-06T04:17:06.900Z,16.40
2019-02-06T04:18:07.079Z,16.70
2019-02-06T04:19:07.288Z,17.60
2019-02-06T04:20:07.511Z,17.50
2019-02-06T04:21:07.702Z,17.00
2019-02-06T04:22:07.956Z,17.20
2019-02-06T04:23:08.156Z,17.60
2019-02-06T04:24:08.419Z,16.80
2019-02-06T04:25:08.590Z,17.30
2019-02-06T04:26:08.781Z,18.10
2019-02-06T04:27:09.038Z,17.80
2019-02-06T04:28:09.179Z,17.10
2019-02-06T04:29:09.401Z,17.80
2019-02-06T04:30:09.631Z,17.10
2019-02-06T04:31:09.832Z,18.30
2019-02-06T04:32:10.171Z,19.00
2019-02-06T04:33:10.231Z,18.70
2019-02-06T04:34:10.437Z,17.90
2019-02-06T04:35:10.668Z,17.50
2019-02-06T04:36:10.850Z,18.50
2019-02-06T04:37:11.115Z,17.60
2019-02-06T04:38:11.238Z,18.90
2019-02-06T04:39:11.463Z,17.70
2019-02-06T04:40:11.788Z,18.50
2019-02-06T04:41:11.898Z,18.50
2019-02-06T04:42:12.165Z,20.30
2019-02-06T04:43:12.287Z,21.10
2019-02-06T04:44:12.501Z,19.60
2019-02-06T04:45:12.757Z,22.20
2019-02-06T04:46:12.937Z,21.30
2019-02-06T04:47:13.183Z,22.70
2019-02-06T04:48:13.398Z,21.20
2019-02-06T04:49:13.536Z,22.10
2019-02-06T04:50:13.782Z,22.00
2019-02-06T04:51:13.975Z,22.80
2019-02-06T04:52:14.217Z,21.80
2019-02-06T04:53:14.380Z,22.50
2019-02-06T04:54:14.581Z,22.50
2019-02-06T04:55:14.796Z,23.30
2019-02-06T04:56:15.068Z,22.10
2019-02-06T04:57:15.224Z,22.90
2019-02-06T04:58:15.413Z,23.10
2019-02-06T04:59:15.629Z,21.60
2019-02-06T05:00:16.089Z,21.20
2019-02-06T05:01:16.029Z,22.80
2019-02-06T05:02:16.292Z,22.80
2019-02-06T05:03:16.460Z,23.50
2019-02-06T05:04:16.712Z,24.00
2019-02-06T05:05:16.930Z,23.30
2019-02-06T05:06:17.079Z,22.60
2019-02-06T05:07:19.155Z,23.20
2019-02-06T05:08:17.498Z,23.60
2019-02-06T05:09:17.694Z,23.20
2019-02-06T05:10:17.918Z,22.20
2019-02-06T05:11:18.113Z,22.70
2019-02-06T05:12:18.336Z,24.00
2019-02-06T05:13:18.656Z,22.50
2019-02-06T05:14:18.760Z,23.40
2019-02-06T05:15:18.971Z,22.60
2019-02-06T05:16:19.262Z,22.90
2019-02-06T05:17:19.349Z,24.20
2019-02-06T05:18:19.596Z,25.10
2019-02-06T05:19:19.799Z,23.60
2019-02-06T05:20:20.033Z,23.20
2019-02-06T05:21:20.307Z,23.30
2019-02-06T05:22:20.385Z,23.60
2019-02-06T05:23:20.638Z,23.70
2019-02-06T05:24:20.832Z,25.30
2019-02-06T05:25:21.091Z,23.90
2019-02-06T05:26:21.236Z,23.90
2019-02-06T05:27:21.441Z,23.70
2019-02-06T05:28:21.662Z,23.40
2019-02-06T05:29:21.909Z,24.20
2019-02-06T05:30:22.099Z,25.40
2019-02-06T05:31:22.271Z,24.30
2019-02-06T05:32:22.489Z,25.10
2019-02-06T05:33:22.733Z,26.30
2019-02-06T05:34:22.876Z,25.50
2019-02-06T05:35:23.113Z,24.50
2019-02-06T05:36:23.305Z,25.80
2019-02-06T05:37:31.507Z,25.20
2019-02-06T05:38:24.754Z,26.20
2019-02-06T05:39:23.914Z,25.90
2019-02-06T05:40:24.177Z,26.30
2019-02-06T05:41:24.358Z,27.00
2019-02-06T05:42:24.575Z,26.70
2019-02-06T05:43:24.812Z,27.90
2019-02-06T05:44:24.978Z,26.40
2019-02-06T05:45:25.229Z,27.50
2019-02-06T05:46:25.550Z,27.00
2019-02-06T05:47:25.601Z,27.30
2019-02-06T05:48:25.832Z,27.60
2019-02-06T05:49:26.011Z,27.10
2019-02-06T05:50:26.232Z,27.80
2019-02-06T05:51:26.412Z,29.50
2019-02-06T05:52:26.634Z,29.60
2019-02-06T05:53:26.870Z,30.10
2019-02-06T05:54:27.268Z,29.80
2019-02-06T05:55:27.260Z,29.50
2019-02-06T05:56:27.471Z,30.10
2019-02-06T05:57:27.690Z,30.50
2019-02-06T05:58:27.949Z,31.20
2019-02-06T05:59:28.110Z,30.80
2019-02-06T06:00:28.334Z,30.80
2019-02-06T06:01:28.518Z,31.30
2019-02-06T06:02:28.760Z,32.60
2019-02-06T06:03:28.945Z,32.80
2019-02-06T06:04:29.138Z,32.70
2019-02-06T06:05:29.359Z,33.20
2019-02-06T06:06:29.673Z,33.20
2019-02-06T06:07:29.736Z,32.60
2019-02-06T06:08:30.062Z,33.10
2019-02-06T06:09:30.166Z,32.50
2019-02-06T06:10:30.469Z,33.20
2019-02-06T06:11:30.582Z,33.90
2019-02-06T06:12:30.775Z,33.30
2019-02-06T06:13:35.637Z,33.80
2019-02-06T06:14:31.183Z,32.70
2019-02-06T06:15:31.426Z,33.90
2019-02-06T06:16:31.620Z,34.20
2019-02-06T06:17:31.815Z,34.50
2019-02-06T06:18:32.097Z,34.20
2019-02-06T06:19:32.254Z,33.30
2019-02-06T06:20:32.481Z,34.30
2019-02-06T06:21:32.654Z,34.80
2019-02-06T06:22:32.857Z,34.80
2019-02-06T06:23:33.096Z,36.50
2019-02-06T06:24:33.275Z,36.80
2019-02-06T06:25:33.457Z,34.80
2019-02-06T06:26:33.712Z,35.10
2019-02-06T06:27:33.990Z,34.30
2019-02-06T06:28:34.133Z,35.40
2019-02-06T06:29:34.294Z,34.80
2019-02-06T06:30:34.512Z,35.70
2019-02-06T06:31:34.752Z,36.90
2019-02-06T06:32:34.962Z,35.60
2019-02-06T06:33:35.187Z,35.90
2019-02-06T06:34:35.371Z,38.40
2019-02-06T06:35:35.677Z,37.20
2019-02-06T06:36:35.799Z,37.50
2019-02-06T06:37:35.990Z,34.80
2019-02-06T06:38:36.461Z,37.80
2019-02-06T06:39:36.403Z,37.90
2019-02-06T06:40:36.608Z,36.90
2019-02-06T06:41:36.815Z,37.20
2019-02-06T06:42:37.021Z,38.60
2019-02-06T06:43:37.313Z,39.30
2019-02-06T06:44:37.419Z,38.20
2019-02-06T06:45:37.632Z,38.80
2019-02-06T06:46:37.839Z,40.00
2019-02-06T06:47:38.030Z,39.60
2019-02-06T06:48:38.281Z,40.40
2019-02-06T06:49:38.460Z,40.20
2019-02-06T06:50:38.667Z,40.80
2019-02-06T06:51:38.978Z,40.60
2019-02-06T06:52:39.043Z,39.10
2019-02-06T06:53:39.306Z,41.00
2019-02-06T06:54:39.500Z,40.20
2019-02-06T06:55:39.708Z,41.00
2019-02-06T06:56:39.933Z,40.50
2019-02-06T06:57:40.126Z,41.50
2019-02-06T06:58:40.355Z,41.40
2019-02-06T06:59:40.568Z,41.90
2019-02-06T07:00:40.834Z,42.50
2019-02-06T07:01:40.968Z,41.90
2019-02-06T07:02:41.654Z,42.50
2019-02-06T07:03:41.396Z,42.50
2019-02-06T07:04:41.556Z,41.40
2019-02-06T07:05:41.783Z,43.50
2019-02-06T07:06:42.005Z,44.70
2019-02-06T07:07:42.198Z,43.40
2019-02-06T07:08:42.480Z,43.70
2019-02-06T07:09:42.612Z,42.60
2019-02-06T07:10:42.831Z,42.30
2019-02-06T07:11:43.046Z,42.20
2019-02-06T07:12:43.235Z,38.50
2019-02-06T07:13:43.469Z,39.70
2019-02-06T07:14:43.639Z,39.50
2019-02-06T07:15:43.868Z,39.90
2019-02-06T07:16:44.219Z,40.10
2019-02-06T07:17:44.279Z,40.10
2019-02-06T07:18:44.514Z,38.90
2019-02-06T07:19:44.684Z,38.30
2019-02-06T07:20:44.889Z,38.70
2019-02-06T07:21:45.126Z,36.90
2019-02-06T07:22:45.315Z,36.20
2019-02-06T07:23:45.562Z,36.40
2019-02-06T07:24:45.774Z,37.10
2019-02-06T07:25:45.903Z,35.00
2019-02-06T07:26:46.137Z,36.80
2019-02-06T07:27:46.343Z,36.10
2019-02-06T07:28:46.573Z,34.90
2019-02-06T07:29:46.757Z,35.00
2019-02-06T07:30:46.961Z,36.20
2019-02-06T07:31:47.192Z,35.00
2019-02-06T07:32:47.440Z,34.80
2019-02-06T07:33:47.591Z,34.70
2019-02-06T07:34:47.814Z,33.30
2019-02-06T07:35:48.019Z,35.20
2019-02-06T07:36:48.245Z,34.30
2019-02-06T07:37:48.435Z,34.60
2019-02-06T07:38:48.636Z,35.40
2019-02-06T07:39:48.866Z,33.80
2019-02-06T07:40:49.090Z,34.20
2019-02-06T07:41:49.396Z,33.80
2019-02-06T07:42:49.466Z,35.00
2019-02-06T07:43:49.702Z,34.00
2019-02-06T07:44:49.909Z,33.80
2019-02-06T07:45:50.107Z,33.20
2019-02-06T07:46:50.332Z,33.50
2019-02-06T07:47:50.520Z,34.50
2019-02-06T07:48:50.725Z,34.10
2019-02-06T07:49:51.086Z,33.50
2019-02-06T07:50:51.153Z,33.50
2019-02-06T07:51:51.382Z,33.10
2019-02-06T07:52:51.562Z,32.40
2019-02-06T07:53:51.783Z,32.10
2019-02-06T07:54:52.007Z,34.30
2019-02-06T07:55:52.197Z,32.10
2019-02-06T07:56:52.423Z,33.10
2019-02-06T07:57:52.675Z,32.00
2019-02-06T07:58:52.850Z,32.80
2019-02-06T07:59:53.018Z,33.40
2019-02-06T08:00:53.225Z,33.40
2019-02-06T08:01:53.441Z,32.70
2019-02-06T08:02:53.639Z,32.80
2019-02-06T08:03:53.868Z,32.60
2019-02-06T08:04:54.072Z,32.90
2019-02-06T08:05:54.327Z,32.90
2019-02-06T08:06:54.483Z,32.40
2019-02-06T08:07:54.709Z,32.70
2019-02-06T08:08:54.867Z,32.40
2019-02-06T08:09:55.102Z,32.80
2019-02-06T08:10:55.283Z,32.90
2019-02-06T08:11:55.491Z,34.20
2019-02-06T08:12:55.701Z,33.10
2019-02-06T08:13:56.003Z,32.50
2019-02-06T08:14:56.163Z,32.10
2019-02-06T08:15:56.300Z,33.40
2019-02-06T08:16:56.775Z,32.50
2019-02-06T08:17:56.748Z,32.20
2019-02-06T08:18:56.966Z,31.60
2019-02-06T08:19:57.198Z,31.00
2019-02-06T08:20:57.370Z,32.90
2019-02-06T08:21:57.605Z,32.30
2019-02-06T08:22:57.923Z,33.70
2019-02-06T08:23:58.027Z,31.20
2019-02-06T08:24:58.258Z,30.90
2019-02-06T08:25:58.442Z,31.00
2019-02-06T08:26:58.656Z,30.50
2019-02-06T08:27:58.851Z,31.20
2019-02-06T08:28:59.067Z,31.00
2019-02-06T08:29:59.283Z,29.80
2019-02-06T08:30:59.633Z,31.20
2019-02-06T08:31:59.668Z,30.30
2019-02-06T08:32:59.897Z,31.30
2019-02-06T08:34:00.099Z,30.60
2019-02-06T08:35:00.354Z,31.80
2019-02-06T08:36:00.514Z,30.40
2019-02-06T08:37:00.725Z,30.90
2019-02-06T08:38:00.942Z,29.90
2019-02-06T08:39:01.212Z,29.80
2019-02-06T08:40:01.354Z,31.10
2019-02-06T08:41:01.537Z,31.00
2019-02-06T08:42:01.752Z,29.10
2019-02-06T08:43:01.982Z,29.80
2019-02-06T08:44:02.177Z,30.10
2019-02-06T08:45:02.406Z,30.40
2019-02-06T08:46:02.603Z,29.60
2019-02-06T08:47:02.841Z,29.40
2019-02-06T08:48:03.013Z,29.60
2019-02-06T08:49:03.208Z,30.10
2019-02-06T08:50:03.441Z,30.40
2019-02-06T08:51:03.636Z,29.60
2019-02-06T08:52:03.858Z,30.10
2019-02-06T08:53:04.099Z,29.40
2019-02-06T08:54:04.272Z,29.20
2019-02-06T08:55:04.537Z,29.90
2019-02-06T08:56:04.756Z,29.50
2019-02-06T08:57:04.888Z,29.40
2019-02-06T08:58:05.174Z,29.50
2019-02-06T08:59:05.303Z,28.80
2019-02-06T09:00:05.529Z,29.70
2019-02-06T09:01:05.699Z,28.30
2019-02-06T09:02:05.926Z,28.30
2019-02-06T09:03:06.192Z,28.60
2019-02-06T09:04:06.544Z,28.70
2019-02-06T09:05:07.539Z,29.00
2019-02-06T09:06:06.752Z,27.30
2019-02-06T09:07:06.960Z,27.50
2019-02-06T09:08:07.224Z,28.10
2019-02-06T09:09:07.409Z,28.30
2019-02-06T09:10:07.642Z,27.70
2019-02-06T09:11:07.825Z,27.20
2019-02-06T09:12:08.323Z,28.20
2019-02-06T09:13:08.248Z,28.00
2019-02-06T09:14:08.424Z,27.60
2019-02-06T09:15:08.654Z,27.40
2019-02-06T09:16:08.836Z,28.10
2019-02-06T09:17:09.025Z,27.30
2019-02-06T09:18:09.251Z,26.50
2019-02-06T09:19:09.456Z,27.10
2019-02-06T09:20:09.723Z,26.70
2019-02-06T09:21:09.849Z,26.10
2019-02-06T09:22:10.075Z,26.50
2019-02-06T09:23:10.269Z,25.80
2019-02-06T09:24:10.461Z,26.10
2019-02-06T09:25:10.718Z,26.20
2019-02-06T09:26:10.878Z,25.70
2019-02-06T09:27:11.098Z,26.10
2019-02-06T09:28:11.356Z,24.80
2019-02-06T09:29:11.513Z,24.70
2019-02-06T09:30:11.854Z,25.30
2019-02-06T09:31:11.928Z,24.60
2019-02-06T09:32:12.132Z,24.10
2019-02-06T09:33:12.358Z,25.60
2019-02-06T09:34:12.554Z,23.60
2019-02-06T09:35:12.791Z,24.30
2019-02-06T09:36:12.978Z,23.60
2019-02-06T09:37:13.295Z,23.00
2019-02-06T09:38:13.407Z,23.70
2019-02-06T09:39:13.598Z,23.20
2019-02-06T09:40:13.828Z,23.10
2019-02-06T09:41:14.009Z,22.00
2019-02-06T09:42:14.214Z,23.40
2019-02-06T09:43:14.439Z,23.30
2019-02-06T09:44:14.627Z,21.50
2019-02-06T09:45:14.956Z,21.80
2019-02-06T09:46:15.034Z,22.80
2019-02-06T09:47:15.248Z,23.00
2019-02-06T09:48:15.474Z,22.00
2019-02-06T09:49:15.665Z,22.20
2019-02-06T09:50:15.887Z,22.10
2019-02-06T09:51:16.059Z,21.50
2019-02-06T09:52:16.286Z,23.20
2019-02-06T09:53:16.816Z,23.90
2019-02-06T09:54:16.696Z,22.50
2019-02-06T09:55:16.893Z,23.30
2019-02-06T09:56:17.116Z,23.50
2019-02-06T09:57:17.305Z,23.10
2019-02-06T09:58:17.542Z,23.20
2019-02-06T09:59:17.737Z,22.30
2019-02-06T10:00:17.939Z,22.80
2019-02-06T10:01:21.268Z,21.90
2019-02-06T10:02:18.333Z,22.50
2019-02-06T10:03:18.582Z,20.70
2019-02-06T10:04:18.783Z,22.00
2019-02-06T10:05:18.987Z,21.80
2019-02-06T10:06:19.237Z,22.40
2019-02-06T10:07:19.412Z,22.10
2019-02-06T10:08:19.630Z,22.80
2019-02-06T10:09:22.901Z,22.40
2019-02-06T10:10:20.079Z,21.70
2019-02-06T10:11:20.258Z,21.20
2019-02-06T10:12:20.443Z,22.20
2019-02-06T10:13:20.670Z,20.60
2019-02-06T10:14:20.853Z,21.50
2019-02-06T10:15:21.062Z,20.90
2019-02-06T10:16:21.302Z,20.80
2019-02-06T10:17:21.484Z,20.60
2019-02-06T10:18:21.799Z,20.20
2019-02-06T10:19:21.896Z,19.90
2019-02-06T10:20:22.182Z,19.30
2019-02-06T10:21:22.356Z,19.70
2019-02-06T10:22:22.539Z,19.60
2019-02-06T10:23:22.919Z,19.60
2019-02-06T10:24:22.940Z,19.80
2019-02-06T10:25:23.143Z,20.40
2019-02-06T10:26:23.495Z,19.20
2019-02-06T10:27:24.123Z,18.60
2019-02-06T10:28:24.309Z,19.80
2019-02-06T10:29:23.947Z,18.40
2019-02-06T10:30:24.177Z,19.40
2019-02-06T10:31:24.426Z,19.10
2019-02-06T10:32:24.608Z,19.40
2019-02-06T10:33:24.831Z,18.50
2019-02-06T10:34:25.064Z,19.30
2019-02-06T10:35:25.195Z,17.90
2019-02-06T10:36:25.455Z,18.10
2019-02-06T10:37:25.641Z,17.60
2019-02-06T10:38:25.864Z,18.00
2019-02-06T10:39:34.331Z,18.20
2019-02-06T10:40:27.259Z,18.40
2019-02-06T10:41:26.487Z,18.60
2019-02-06T10:42:26.690Z,17.40
2019-02-06T10:43:32.048Z,17.80
2019-02-06T10:44:28.084Z,17.50
2019-02-06T10:45:27.285Z,18.30
2019-02-06T10:46:27.530Z,18.40
2019-02-06T10:47:27.682Z,18.60
2019-02-06T10:48:27.910Z,18.00
2019-02-06T10:49:28.111Z,18.10
2019-02-06T10:50:28.338Z,17.90
2019-02-06T10:51:28.635Z,17.10
2019-02-06T10:52:28.716Z,18.20
2019-02-06T10:53:28.941Z,17.20
2019-02-06T10:54:29.152Z,17.30
2019-02-06T10:55:29.372Z,17.60
2019-02-06T10:56:29.598Z,17.10
2019-02-06T10:57:29.778Z,16.30
2019-02-06T10:58:29.971Z,16.90
2019-02-06T10:59:30.298Z,17.00
2019-02-06T11:00:30.434Z,16.60
2019-02-06T11:01:30.669Z,15.80
2019-02-06T11:02:30.844Z,17.00
2019-02-06T11:03:31.043Z,16.60
2019-02-06T11:04:31.281Z,15.70
2019-02-06T11:05:31.493Z,16.30
2019-02-06T11:06:31.725Z,16.20
2019-02-06T11:07:31.970Z,16.10
2019-02-06T11:08:32.090Z,16.70
2019-02-06T11:09:32.325Z,15.30
2019-02-06T11:10:32.538Z,14.40
2019-02-06T11:11:32.743Z,14.50
2019-02-06T11:12:32.927Z,13.90
2019-02-06T11:13:33.134Z,13.50
2019-02-06T11:14:33.351Z,13.90
2019-02-06T11:15:33.605Z,13.10
2019-02-06T11:16:33.752Z,13.40
2019-02-06T11:17:33.959Z,13.20
2019-02-06T11:18:34.157Z,13.20
2019-02-06T11:19:34.377Z,11.90
2019-02-06T11:20:34.553Z,13.50
2019-02-06T11:21:34.771Z,12.50
2019-02-06T11:22:34.989Z,13.10
2019-02-06T11:23:35.228Z,12.50
2019-02-06T11:24:35.443Z,12.50
2019-02-06T11:25:35.589Z,12.50
2019-02-06T11:26:35.812Z,14.70
2019-02-06T11:27:36.020Z,12.00
2019-02-06T11:28:36.210Z,11.60
2019-02-06T11:29:36.440Z,11.00
2019-02-06T11:30:36.636Z,11.50
2019-02-06T11:31:36.867Z,10.50
2019-02-06T11:32:37.143Z,10.00
2019-02-06T11:33:37.476Z,10.00
2019-02-06T11:34:37.475Z,10.90
2019-02-06T11:35:37.659Z,10.60
2019-02-06T11:36:37.884Z,11.00
2019-02-06T11:37:38.084Z,10.20
2019-02-06T11:38:38.274Z,10.30
2019-02-06T11:39:38.515Z,9.80
2019-02-06T11:40:38.814Z,10.40
2019-02-06T11:41:38.909Z,10.00
2019-02-06T11:42:39.110Z,10.70
2019-02-06T11:43:39.337Z,9.40
2019-02-06T11:44:39.567Z,9.90
2019-02-06T11:45:39.762Z,9.50
2019-02-06T11:46:39.975Z,8.90
2019-02-06T11:47:40.161Z,10.30
2019-02-06T11:48:43.220Z,9.60
2019-02-06T11:49:40.581Z,9.70
2019-02-06T11:50:40.795Z,9.00
2019-02-06T11:51:41.004Z,8.90
2019-02-06T11:52:41.203Z,9.20
2019-02-06T11:53:41.389Z,9.20
2019-02-06T11:54:41.625Z,9.30
2019-02-06T11:55:41.833Z,9.40
2019-02-06T11:56:42.097Z,9.30
2019-02-06T11:57:42.237Z,10.50
2019-02-06T11:58:42.436Z,10.20
2019-02-06T11:59:42.650Z,10.20
2019-02-06T12:00:42.846Z,10.40
2019-02-06T12:01:43.058Z,10.20
2019-02-06T12:02:43.282Z,9.40
2019-02-06T12:03:43.472Z,9.50
2019-02-06T12:04:43.822Z,10.00
2019-02-06T12:05:43.925Z,10.20
2019-02-06T12:06:44.083Z,9.70
2019-02-06T12:07:44.323Z,10.70
2019-02-06T12:08:44.522Z,10.30
2019-02-06T12:09:44.750Z,9.90
2019-02-06T12:10:44.926Z,10.60
2019-02-06T12:11:45.145Z,10.30
2019-02-06T12:12:45.410Z,10.50
2019-02-06T12:13:51.219Z,10.30
2019-02-06T12:14:45.797Z,9.70
2019-02-06T12:15:45.981Z,10.30
2019-02-06T12:16:46.217Z,10.40
2019-02-06T12:17:46.488Z,10.20
2019-02-06T12:18:46.887Z,10.40
2019-02-06T12:19:46.856Z,10.20
2019-02-06T12:20:47.039Z,10.20
2019-02-06T12:21:47.373Z,10.30
2019-02-06T12:22:47.501Z,10.00
2019-02-06T12:23:48.206Z,8.90
2019-02-06T12:24:47.906Z,9.60
2019-02-06T12:25:48.080Z,9.10
2019-02-06T12:26:48.274Z,9.10
2019-02-06T12:27:48.991Z,8.80
2019-02-06T12:28:48.705Z,9.10
2019-02-06T12:29:48.991Z,9.50
2019-02-06T12:30:49.500Z,8.70
2019-02-06T12:31:49.313Z,8.70
2019-02-06T12:32:52.292Z,8.30
2019-02-06T12:33:49.925Z,9.00
2019-02-06T12:34:49.944Z,8.50
2019-02-06T12:35:50.139Z,8.60
2019-02-06T12:36:50.350Z,9.00
2019-02-06T12:37:50.596Z,9.50
2019-02-06T12:38:53.611Z,8.80
2019-02-06T12:39:50.973Z,8.70
2019-02-06T12:40:52.008Z,8.40
2019-02-06T12:41:51.378Z,8.30
2019-02-06T12:42:51.604Z,9.30
2019-02-06T12:43:51.799Z,10.80
2019-02-06T12:44:51.992Z,9.80
2019-02-06T12:45:52.287Z,8.70
2019-02-06T12:46:52.482Z,8.80
2019-02-06T12:47:52.725Z,9.50
2019-02-06T12:48:52.806Z,8.80
2019-02-06T12:49:53.033Z,8.80
2019-02-06T12:50:53.238Z,9.70
2019-02-06T12:51:53.457Z,9.10
2019-02-06T12:52:53.694Z,9.10
2019-02-06T12:53:53.872Z,9.80
2019-02-06T12:54:54.205Z,9.30
2019-02-06T12:55:54.274Z,9.10
2019-02-06T12:56:54.478Z,10.10